logo
Search for airport 
image banner adimage banner adimage banner ad
image banner ad

HKLU - Lamu Manda

Located in Lamu Manda, Kenya

ICAO - HKLU, IATA - LAU

Data provided by Airmate  

General information

Coordinates: S2°15'8" E40°54'47"
Elevation is 18 feet MSL.
Magnetic variation is -1° East
View others Airports in Coast Province

Operational data

Special qualification required
Current time UTC:
Current local time:
Weather
METAR: HKLU 180700Z 00000KT 9999 BKN024TCU 30/23 Q1012
View NOTAMs / SUP AIP / TFR affecting this airport [VIEW]
Communications frequencies: [VIEW]

Runways:

RWY identifierQFULength (ft)Width (ft)SurfaceLDA (ft)
0874°313076DIRT2963
26254°313076DIRT2963
15153°6565104ASPH6562
33333°6565104ASPH6562

Airport contact information

Address: Lamu Manda Kenya

Satellite view of HKLU